logo
Search for airport 
image banner adimage banner adimage banner ad
image banner ad

EKBU - Butendiek

Located in , Germany

ICAO - , IATA -

Data provided by Airmate  

General information

Coordinates: N55°1'10" E7°47'59"
Elevation is 132 feet MSL.
 
View others Airports in Schleswig-Holstein

Operational data

Special qualification required
Current time UTC:
Current local time:
Weather at : EDXW - Sylt ( 37 km )
METAR: EDXW 241820Z 19012KT CAVOK 16/10 Q1024
TAF: TAF EDXW 241700Z 2418/2421 19012KT CAVOK
View NOTAMs / SUP AIP / TFR affecting this airport [VIEW]
Communications frequencies: [VIEW]

Runways:

Airport contact information

Address: Germany

Satellite view of EKBU